Airfield :
LOGIN :

Register | Disclaimer

   EN    FR    IT 

 










Legend :    VFR   Marginal VFR   IFR   Intensive IFR   Very Intensive IFR
Visi :
Ceiling :
>= 8 km
>= 3000ft
5 to 8 km
1000 to 3000 ft
1500m to 5 km
500 to 1000 ft
800 to 1500m
200 to 500 ft
< 800m
< 200 ft
Symbols :   Thunderstorms  Fog  Heavy snow  Heavy precipitations  Wind > 20 kt
SIGMETs :     Misc.  Thunderstorms  Icing  Turbulence  Mountain Waves  Volcanic Ashes






- Airport Elevation : 481 ft
- IATA code : DNK


UKDD - Dnipropetrovs'k

CURRENT METAR :
  • 210700Z 03004MPS 9999 BKN044 01/M02 Q1021 R08/090070 NOSIG

EXPIRED METARs :
  • 210630Z 03005MPS 9999 BKN043 01/M02 Q1021 R08/090070 NOSIG
  • 210600Z 02004MPS 9999 BKN043 00/M02 Q1021 R08/090070 NOSIG
  • 210530Z 02004MPS 7000 BKN042 M00/M02 Q1021 R08/090070 NOSIG
  • 210500Z 04003MPS 6000 BKN043 M00/M02 Q1021 R08/090070 NOSIG

TAF TAF UKDD
Valid from the 21 at 06:00 until the 22 at 06:00 UTC


210505Z 2106/2206 05005MPS 4000 BR BKN010 TX04/2112Z TNM00/2204Z
TEMPO 2106/2108 1100 BR BKN003



MET'MAP, your aeronautical weather chart ! - Copyright ORBIFLY December 2007 - Disclaimer

ORBIFLY MET'MAP TEAM :

Programming & Development : Alexandra Zaïnal
Concept & original design : Baudouin d'Aumeries
Assistance for programming : Marc-Olivier Méhu
Technical & hardware support : Manuel Goepfert

Contact : metmap@orbifly.com




SOURCES & CREDITS :

   NOAA